首页
METAR-TAF:

METAR-TAF

机场 :

昆明长水国际机场

昆明, 中华人民共和国

纬度: 25-01N, 经度: 102-41E, 海拔: 1892米

当前天气观测

该预报发布于1小时和1分钟前的07:00 UTC
风速10节,风向西南,在西之间变化
温度 28°C
湿度 30%
气压 1019 hPa
能见度10公里或以上
少量云层高于2600英尺, 塔状积云.
散云层高于2600英尺

METAR: ZPPP 220700Z 23005MPS 190V270 9999 FEW026TCU SCT026 28/09 Q1019 BECMG TL0850 04005MPS TS

时间: 16:01 (08:01 UTC)

预报

该预报发布于6小时和47分钟前的01:14 UTC
预报有效从22日的 06点(UTC)到 23日的 06点(UTC)
风速12节,风向东北
能见度10公里或以上
多云层高于2600英尺
成为
从 22日的 08点(UTC)到 22日的 09点(UTC)
少量云层高于2600英尺, 积雨云.
多云层高于2600英尺
雷暴, 雨
成为
从 22日的 12点(UTC)到 22日的 13点(UTC)

TAF: ZPPP 220114Z 2206/2306 04006MPS 9999 BKN026 TX24/2207Z TN12/2223Z BECMG 2208/2209 TSRA FEW026CB BKN026 BECMG 2212/2213 NSW

超过4000个机场的气象观测和天气预报(METAR&TAF报告)。

可查询的气象台以黄色和红色小点在地图上表示。

将鼠标移到小点上方,可查看气象台名称。

然后点击查看天气观测和预报。

如需切换地图:点击带黑十字的绿色按钮放大地图;点击带横线的绿色按钮缩小地图;或者点击绿色箭头查看邻近地区的地图。


METAR-TAF: